Tijuana, México

10:50 AM PDT en Julio 06, 2015 (GMT -0700)
Tijuana BC-CMOE-Proteccion Civil | | Change Station
CLOSE
Current Station
Estación meteorológica personal
Location: Tijuana, BAJA CALIFORNIA
Altura: 476 ft
Estaciones meteorológicas cercanas

Alt 476 ft 32.53 °N, 116.99 °W | Updated 10 minutes ago

Overcast
Nublado
66.3 ° F
Sensación térmica 66.3 ° F
N
4.0
Viento Variable Viento desde Oeste

Hoy
Alta -- | Baja -- ° F
--% Posibilidad de precipitaciones
Ayer
Alta -- | Baja -- ° F
Precip. -- pul
5:46 AM 7:58 PM
Gibosa menguante, 73% visible
Presión 30.05 pul
Visibilidad 10.0 Millas
Nubes Nublado 1500 ft
Punto de rocío 61 ° F
Humedad 83%
Precipitaciones 0.00 pul
Espesor de la nieve No disponible.
UV 2 de una escala de 12
Polen No disponible.
Calidad del aire No disponible.
Flu Activity No disponible.
METAR KSDM 061653Z 32004KT 10SM OVC015 19/16 A3006 RMK AO2 SLP176 T01940156

More Conditions Fewer Conditions

Presión 30.05 pul
Visibilidad 10.0 Millas
Nubes Nublado 1500 ft
Punto de rocío 61 ° F
Humedad 83%
Precipitaciones 0.00 pul
Espesor de la nieve No disponible.
UV 2 de una escala de 12
Polen No disponible.
Calidad del aire No disponible.
Flu Activity No disponible.
METAR KSDM 061653Z 32004KT 10SM OVC015 19/16 A3006 RMK AO2 SLP176 T01940156

More Conditions Fewer Conditions

10-Day Weather Forecast

×

Almanac

Astronomía

Jul. 06, 2015 Salida Puesta
Hora real
Crepúsculo civil
Crepúsculo náutico
Crepúsculo astronómico
Luna
Horas de luz
Horas de luz
Tomorrow will be .
, % of the Moon is Illuminated

Extremos de hoy

Máximos del país Bajas del país

Community

WunderPhotos

Upload Photos

1,835,607 ¡fotos cargadas!

WunderBlogs® & News

Nearby

Calidad del aire

  Calidad del aire Índice AQ Contaminante
Not available.

Grosos de nieve

Estación Profundido Altura

Actividad de terremotos

Ciudad Distance Mag. Tiempo y dato
Magnitud mínima muestra es 2,5.

Temperaturas de aguas costeras

Lugar Temperatura

Stations

Estaciones meteorológicas cercanas

Ubicación de la estación Temp. Vientos helados Punto de rocío Humedad Viento Precip. Alt Actualizado Tipo